Time;durP1;ratioP1;P1;durP2;ratioP2;P2;SDS_P1;SDS_P2;PMS_P1;PMS_P2;Temp;Humidity;BMP_temperature;BMP_pressure;BME280_temperature;BME280_humidity;BME280_pressure;Samples;Min_cycle;Max_cycle;Signal;HPM_P1;HPM_P2
2021/07/06 00:02:00;;;;;;;3.85;3.00;;;17.80;99.90;;;;;;6184774;23;20195;-72
2021/07/06 00:04:28;;;;;;;3.88;2.55;;;17.90;99.90;;;;;;6185237;23;20195;-72
2021/07/06 00:06:55;;;;;;;5.63;2.85;;;17.80;99.90;;;;;;6184816;23;20681;-72
2021/07/06 00:09:22;;;;;;;3.88;2.80;;;17.90;99.90;;;;;;6184294;23;20266;-72
2021/07/06 00:11:49;;;;;;;5.35;3.08;;;17.90;99.90;;;;;;6184228;23;20189;-72
2021/07/06 00:14:16;;;;;;;7.43;2.67;;;17.80;99.90;;;;;;6184879;23;20530;-72
2021/07/06 00:16:43;;;;;;;5.90;2.85;;;17.80;99.90;;;;;;6184751;23;20160;-72
2021/07/06 00:19:10;;;;;;;4.05;2.67;;;17.90;99.90;;;;;;6184160;23;20168;-72
2021/07/06 00:21:38;;;;;;;5.72;3.00;;;17.90;99.90;;;;;;6184092;23;20156;-72
2021/07/06 00:24:05;;;;;;;4.47;2.83;;;17.90;99.90;;;;;;6184062;23;20283;-72
2021/07/06 00:26:32;;;;;;;4.75;3.13;;;18.00;99.90;;;;;;6184089;23;20167;-72
2021/07/06 00:28:59;;;;;;;3.17;2.63;;;18.10;99.90;;;;;;6184347;23;20255;-72
2021/07/06 00:31:26;;;;;;;2.95;2.60;;;18.30;99.90;;;;;;6183066;23;20187;-72
2021/07/06 00:33:53;;;;;;;5.05;2.97;;;18.20;99.90;;;;;;6183997;23;20160;-72
2021/07/06 00:36:20;;;;;;;4.90;3.15;;;18.20;99.90;;;;;;6184969;23;20588;-72
2021/07/06 00:38:48;;;;;;;8.18;3.13;;;18.20;99.90;;;;;;6183607;23;20166;-72
2021/07/06 00:41:15;;;;;;;5.32;3.80;;;18.20;99.90;;;;;;6183607;23;20243;-72
2021/07/06 00:43:42;;;;;;;5.53;3.50;;;18.30;99.90;;;;;;6184282;23;20160;-72
2021/07/06 00:46:09;;;;;;;6.85;3.65;;;18.40;99.90;;;;;;6184037;23;20174;-72
2021/07/06 00:48:36;;;;;;;5.03;2.95;;;18.40;99.90;;;;;;6184206;23;20159;-72
2021/07/06 00:51:03;;;;;;;4.72;2.85;;;18.50;99.90;;;;;;6183018;23;20190;-72
2021/07/06 00:53:30;;;;;;;3.63;2.75;;;18.50;99.90;;;;;;6183908;23;20813;-72
2021/07/06 00:56:00;;;;;;;3.67;2.30;;;18.50;99.90;;;;;;6184488;23;20168;-72
2021/07/06 00:58:28;;;;;;;2.22;2.13;;;18.60;99.90;;;;;;6184303;23;20548;-72
2021/07/06 01:00:55;;;;;;;3.28;2.28;;;18.60;99.90;;;;;;6183390;23;20160;-72
2021/07/06 01:03:22;;;;;;;2.22;2.10;;;18.70;99.90;;;;;;6184168;23;20516;-72
2021/07/06 01:05:50;;;;;;;2.17;2.08;;;18.80;99.90;;;;;;6184395;23;20160;-72
2021/07/06 01:08:17;;;;;;;3.45;2.22;;;18.80;99.90;;;;;;6183440;23;20183;-72
2021/07/06 01:10:44;;;;;;;2.15;2.03;;;18.80;99.90;;;;;;6183559;23;20665;-72
2021/07/06 01:13:12;;;;;;;2.03;1.83;;;18.90;99.90;;;;;;6184061;23;20164;-72
2021/07/06 01:15:39;;;;;;;4.80;2.47;;;18.90;99.90;;;;;;6183796;23;20211;-72
2021/07/06 01:18:07;;;;;;;2.45;1.80;;;18.90;99.90;;;;;;6183858;23;20557;-72
2021/07/06 01:20:36;;;;;;;2.03;1.90;;;18.80;99.90;;;;;;6182577;23;20166;-72
2021/07/06 01:23:05;;;;;;;6.47;1.80;;;18.70;99.90;;;;;;6183914;23;20164;-72
2021/07/06 01:25:33;;;;;;;2.00;1.90;;;18.70;99.90;;;;;;6183675;23;20203;-72
2021/07/06 01:28:02;;;;;;;2.30;2.10;;;18.60;99.90;;;;;;6183867;23;20553;-72
2021/07/06 01:30:29;;;;;;;2.70;2.40;;;18.50;99.90;;;;;;6182745;23;20168;-72
2021/07/06 01:32:56;;;;;;;4.13;2.50;;;18.60;99.90;;;;;;6183473;23;20170;-72
2021/07/06 01:35:23;;;;;;;4.85;2.35;;;18.50;99.90;;;;;;6183983;23;20187;-72
2021/07/06 01:37:51;;;;;;;2.97;2.72;;;18.50;99.90;;;;;;6183226;23;20160;-72
2021/07/06 01:40:21;;;;;;;3.13;2.70;;;18.50;99.90;;;;;;6182766;23;20166;-72
2021/07/06 01:42:49;;;;;;;3.60;2.60;;;18.50;99.90;;;;;;6183219;23;20222;-73
2021/07/06 01:45:18;;;;;;;5.80;2.30;;;18.60;99.90;;;;;;6183022;23;20164;-72
2021/07/06 01:47:47;;;;;;;2.42;2.22;;;18.50;99.90;;;;;;6183140;23;20160;-72
2021/07/06 01:50:19;;;;;;;2.33;2.13;;;18.50;99.90;;;;;;6182200;23;20171;-72
2021/07/06 01:52:49;;;;;;;3.33;1.80;;;18.50;99.90;;;;;;6184353;23;20160;-72
2021/07/06 01:55:21;;;;;;;2.30;1.95;;;18.50;99.90;;;;;;6182775;23;20172;-71
2021/07/06 01:57:49;;;;;;;3.72;2.00;;;18.50;99.90;;;;;;6183219;23;20164;-72
2021/07/06 02:00:19;;;;;;;3.75;1.65;;;18.60;99.90;;;;;;6182633;23;20164;-72
2021/07/06 02:02:46;;;;;;;2.33;2.10;;;18.50;99.90;;;;;;6183710;23;20242;-71
2021/07/06 02:05:34;;;;;;;2.90;1.88;;;18.50;99.90;;;;;;6183488;23;20239;-72
2021/07/06 02:08:01;;;;;;;1.98;1.88;;;18.50;99.90;;;;;;6183260;23;20171;-72
2021/07/06 02:10:30;;;;;;;2.55;2.20;;;18.50;99.90;;;;;;6182995;23;20166;-72
2021/07/06 02:12:58;;;;;;;2.83;2.60;;;18.50;99.90;;;;;;6183328;23;20164;-72
2021/07/06 02:15:26;;;;;;;2.60;2.40;;;18.60;99.90;;;;;;6183321;23;20170;-72
2021/07/06 02:17:53;;;;;;;2.70;2.50;;;18.50;99.90;;;;;;6183364;23;20160;-72
2021/07/06 02:20:22;;;;;;;4.10;2.90;;;18.50;99.90;;;;;;6181168;23;20164;-72
2021/07/06 02:22:50;;;;;;;2.95;2.35;;;18.60;99.90;;;;;;6181905;23;20182;-72
2021/07/06 02:25:19;;;;;;;3.88;2.50;;;18.50;99.90;;;;;;6183453;23;20160;-72
2021/07/06 02:27:48;;;;;;;4.70;2.45;;;18.50;99.90;;;;;;6183151;23;20251;-72
2021/07/06 02:30:18;;;;;;;3.90;2.50;;;18.50;99.90;;;;;;6182228;23;20174;-72
2021/07/06 02:32:46;;;;;;;2.42;2.15;;;18.40;99.90;;;;;;6183294;23;20187;-72
2021/07/06 02:35:13;;;;;;;2.60;1.83;;;18.50;99.90;;;;;;6183389;23;20482;-72
2021/07/06 02:37:41;;;;;;;2.97;1.80;;;18.50;99.90;;;;;;6182562;23;20587;-72
2021/07/06 02:40:10;;;;;;;3.03;1.38;;;18.50;99.90;;;;;;6182462;23;20166;-72
2021/07/06 02:42:37;;;;;;;2.30;1.60;;;18.50;99.90;;;;;;6183332;23;20163;-72
2021/07/06 02:45:08;;;;;;;2.80;1.27;;;18.50;99.90;;;;;;6182932;23;20167;-72
2021/07/06 02:47:36;;;;;;;2.28;1.38;;;18.50;99.90;;;;;;6183283;23;20182;-72
2021/07/06 02:50:05;;;;;;;1.67;1.58;;;18.50;99.90;;;;;;6182731;23;20167;-72
2021/07/06 02:52:32;;;;;;;1.98;1.50;;;18.40;99.90;;;;;;6182238;23;20186;-72
2021/07/06 02:54:58;;;;;;;2.83;1.67;;;18.40;99.90;;;;;;6182133;23;20248;-72
2021/07/06 02:57:35;;;;;;;1.90;1.63;;;18.40;99.90;;;;;;6183026;23;20167;-72
2021/07/06 03:00:06;;;;;;;3.30;1.40;;;18.40;99.90;;;;;;6182876;23;20160;-72
2021/07/06 03:02:33;;;;;;;4.00;1.40;;;18.40;99.90;;;;;;6183473;23;20163;-72
2021/07/06 03:05:00;;;;;;;3.05;1.40;;;18.30;99.90;;;;;;6183463;23;20283;-72
2021/07/06 03:07:27;;;;;;;3.60;1.63;;;18.30;99.90;;;;;;6183847;23;20243;-72
2021/07/06 03:09:54;;;;;;;1.98;1.30;;;18.30;99.90;;;;;;6182406;23;20187;-72
2021/07/06 03:12:21;;;;;;;1.85;1.50;;;18.20;99.90;;;;;;6183976;23;20623;-72
2021/07/06 03:14:48;;;;;;;3.83;1.65;;;18.20;99.90;;;;;;6185555;23;20168;-72
2021/07/06 03:17:16;;;;;;;2.45;1.65;;;18.10;99.90;;;;;;6185182;23;20165;-72
2021/07/06 03:19:43;;;;;;;1.50;1.40;;;18.20;99.90;;;;;;6184399;23;20243;-72
2021/07/06 03:22:10;;;;;;;1.77;1.48;;;18.10;99.90;;;;;;6185155;23;20166;-72
2021/07/06 03:24:37;;;;;;;2.33;1.58;;;18.10;99.90;;;;;;6184783;23;20243;-72
2021/07/06 03:27:04;;;;;;;5.20;1.50;;;18.20;99.90;;;;;;6185319;23;20215;-72
2021/07/06 03:29:31;;;;;;;2.08;1.20;;;18.20;99.90;;;;;;6184675;23;20160;-72
2021/07/06 03:31:58;;;;;;;4.72;1.50;;;18.20;99.90;;;;;;6184407;23;20488;-72
2021/07/06 03:34:26;;;;;;;2.15;1.33;;;18.30;99.90;;;;;;6185638;23;20160;-72
2021/07/06 03:36:53;;;;;;;1.58;1.48;;;18.30;99.90;;;;;;6184854;23;20474;-72
2021/07/06 03:39:20;;;;;;;1.77;1.65;;;18.40;99.90;;;;;;6184155;23;20160;-72
2021/07/06 03:41:47;;;;;;;1.67;1.40;;;18.50;99.90;;;;;;6183349;23;20164;-72
2021/07/06 03:44:14;;;;;;;4.93;2.33;;;18.50;99.90;;;;;;6185045;23;20243;-72
2021/07/06 03:46:41;;;;;;;4.13;2.45;;;18.70;99.90;;;;;;6184664;23;20164;-72
2021/07/06 03:49:07;;;;;;;2.00;1.60;;;18.80;99.90;;;;;;6184228;23;20198;-72
2021/07/06 03:51:36;;;;;;;2.90;1.40;;;19.00;99.90;;;;;;6184470;23;20184;-72
2021/07/06 03:54:02;;;;;;;2.58;2.03;;;19.10;99.90;;;;;;6185421;23;20166;-72
2021/07/06 03:56:29;;;;;;;5.03;2.47;;;19.10;99.90;;;;;;6185480;23;20670;-74
2021/07/06 03:58:56;;;;;;;4.00;2.33;;;19.10;99.90;;;;;;6184989;23;20164;-72
2021/07/06 04:01:23;;;;;;;3.20;2.15;;;19.10;99.90;;;;;;6183304;23;20156;-72
2021/07/06 04:03:50;;;;;;;3.85;2.20;;;19.20;99.90;;;;;;6184602;23;20183;-73
2021/07/06 04:06:17;;;;;;;2.80;1.55;;;19.20;99.90;;;;;;6184858;23;20196;-72
2021/07/06 04:08:45;;;;;;;2.90;1.60;;;19.10;99.90;;;;;;6184779;22;20596;-73
2021/07/06 04:11:12;;;;;;;1.75;1.60;;;19.00;99.90;;;;;;6183454;23;20535;-73
2021/07/06 04:13:39;;;;;;;1.77;1.42;;;19.00;99.90;;;;;;6185158;23;20199;-73
2021/07/06 04:16:06;;;;;;;2.28;1.63;;;18.90;99.90;;;;;;6184691;23;20160;-73
2021/07/06 04:18:33;;;;;;;5.15;2.08;;;18.80;99.90;;;;;;6185035;23;20177;-73
2021/07/06 04:21:00;;;;;;;1.45;1.40;;;19.00;99.90;;;;;;6183419;23;20246;-73
2021/07/06 04:23:27;;;;;;;1.75;1.65;;;19.00;99.90;;;;;;6183646;23;20164;-75
2021/07/06 04:25:55;;;;;;;5.97;2.03;;;19.90;99.90;;;;;;6184271;23;20472;-75
2021/07/06 04:28:22;;;;;;;2.58;1.55;;;20.50;99.90;;;;;;6183448;23;20160;-75
2021/07/06 04:30:48;;;;;;;2.78;1.80;;;21.30;99.90;;;;;;6183735;23;20468;-74
2021/07/06 04:33:15;;;;;;;3.53;1.42;;;20.30;99.90;;;;;;6183658;23;20263;-75
2021/07/06 04:35:42;;;;;;;1.88;1.60;;;20.00;99.90;;;;;;6184172;23;20590;-74
2021/07/06 04:38:09;;;;;;;3.10;1.52;;;19.70;99.90;;;;;;6183671;23;20160;-75
2021/07/06 04:40:36;;;;;;;2.05;1.65;;;19.70;99.90;;;;;;6184210;23;20490;-74
2021/07/06 04:43:06;;;;;;;2.25;1.38;;;19.90;99.90;;;;;;6183871;23;20547;-74
2021/07/06 04:45:33;;;;;;;3.38;1.50;;;19.80;99.90;;;;;;6183774;23;20669;-74
2021/07/06 04:47:59;;;;;;;3.70;1.67;;;19.70;99.90;;;;;;6184150;23;20473;-74
2021/07/06 04:50:26;;;;;;;2.58;1.60;;;19.40;99.90;;;;;;6183921;23;20187;-75
2021/07/06 04:52:54;;;;;;;3.35;1.88;;;19.40;99.90;;;;;;6184625;23;20184;-75
2021/07/06 04:55:21;;;;;;;1.52;1.42;;;19.70;99.90;;;;;;6184078;23;20483;-73
2021/07/06 04:57:48;;;;;;;4.88;3.10;;;19.70;99.90;;;;;;6184399;23;20164;-75
2021/07/06 05:00:18;;;;;;;3.47;2.22;;;19.70;99.90;;;;;;6183580;23;20175;-73
2021/07/06 05:02:45;;;;;;;1.73;1.63;;;19.90;99.90;;;;;;6183887;23;20164;-75
2021/07/06 05:05:13;;;;;;;1.70;1.60;;;19.90;99.90;;;;;;6183355;23;20163;-75
2021/07/06 05:07:39;;;;;;;2.63;1.63;;;20.30;99.90;;;;;;6184368;23;20468;-73
2021/07/06 05:10:09;;;;;;;3.10;1.55;;;21.50;99.90;;;;;;6183058;23;20190;-72
2021/07/06 05:12:35;;;;;;;1.90;1.63;;;21.80;99.90;;;;;;6184376;23;20184;-73
2021/07/06 05:15:04;;;;;;;2.67;1.95;;;20.90;99.90;;;;;;6184080;23;20605;-75
2021/07/06 05:17:33;;;;;;;1.85;1.52;;;20.40;99.90;;;;;;6183979;23;20160;-75
2021/07/06 05:19:59;;;;;;;2.50;1.63;;;20.10;99.90;;;;;;6183286;23;20613;-75
2021/07/06 05:22:27;;;;;;;1.73;1.63;;;20.00;99.90;;;;;;6183341;23;20171;-75
2021/07/06 05:24:53;;;;;;;2.70;1.80;;;19.80;99.90;;;;;;6184053;23;20488;-75
2021/07/06 05:27:20;;;;;;;4.65;1.80;;;20.10;99.90;;;;;;6183282;23;20160;-75
2021/07/06 05:29:47;;;;;;;2.35;1.77;;;20.40;99.90;;;;;;6182906;23;20182;-74
2021/07/06 05:32:18;;;;;;;3.10;1.90;;;20.50;99.90;;;;;;6183213;23;20226;-75
2021/07/06 05:34:46;;;;;;;3.72;1.88;;;20.90;99.90;;;;;;6183853;23;20601;-75
2021/07/06 05:37:13;;;;;;;4.03;1.90;;;20.60;99.90;;;;;;6182967;23;20167;-74
2021/07/06 05:39:40;;;;;;;3.38;1.70;;;20.60;99.90;;;;;;6183203;23;20242;-75
2021/07/06 05:42:08;;;;;;;2.30;1.70;;;20.50;99.90;;;;;;6183578;23;20212;-74
2021/07/06 05:44:35;;;;;;;1.83;1.65;;;20.60;99.90;;;;;;6182933;23;20167;-75
2021/07/06 05:47:02;;;;;;;4.78;1.77;;;21.50;99.90;;;;;;6183836;23;20167;-74
2021/07/06 05:49:29;;;;;;;5.75;1.80;;;21.40;99.90;;;;;;6183314;23;20164;-74
2021/07/06 05:51:57;;;;;;;2.47;1.23;;;21.80;99.90;;;;;;6182958;23;20690;-75
2021/07/06 05:54:24;;;;;;;2.15;1.85;;;21.80;99.90;;;;;;6182714;23;20239;-74
2021/07/06 05:56:50;;;;;;;4.20;2.00;;;21.90;99.90;;;;;;6183771;23;20239;-74
2021/07/06 05:59:17;;;;;;;4.10;1.67;;;22.00;99.90;;;;;;6183124;23;20170;-74
2021/07/06 06:01:44;;;;;;;4.28;1.60;;;21.50;99.90;;;;;;6182395;23;20194;-74
2021/07/06 06:04:11;;;;;;;2.85;1.90;;;21.40;99.90;;;;;;6182462;23;20491;-74
2021/07/06 06:06:38;;;;;;;3.03;1.73;;;21.20;99.90;;;;;;6182632;23;20238;-74
2021/07/06 06:09:06;;;;;;;2.97;1.35;;;21.10;99.90;;;;;;6183031;23;20190;-74
2021/07/06 06:11:33;;;;;;;2.33;1.65;;;21.10;99.90;;;;;;6182558;23;20171;-74
2021/07/06 06:13:59;;;;;;;3.22;1.83;;;21.10;99.90;;;;;;6183501;23;20188;-74
2021/07/06 06:16:26;;;;;;;1.60;1.50;;;21.30;99.90;;;;;;6183670;23;20160;-74
2021/07/06 06:18:55;;;;;;;3.30;1.60;;;21.30;99.90;;;;;;6183258;23;20521;-74
2021/07/06 06:21:22;;;;;;;4.90;1.95;;;21.30;99.90;;;;;;6182953;23;20191;-74
2021/07/06 06:23:49;;;;;;;2.78;1.65;;;21.40;99.90;;;;;;6183459;23;20655;-72
2021/07/06 06:26:17;;;;;;;2.78;1.45;;;21.30;99.90;;;;;;6182215;23;20357;-71
2021/07/06 06:28:44;;;;;;;2.63;1.60;;;21.40;99.90;;;;;;6183452;23;20479;-73
2021/07/06 06:31:11;;;;;;;2.10;1.88;;;21.60;99.90;;;;;;6181912;23;20167;-72
2021/07/06 06:33:38;;;;;;;1.83;1.73;;;21.60;99.90;;;;;;6182453;23;20267;-72
2021/07/06 06:36:05;;;;;;;2.80;1.33;;;21.50;99.90;;;;;;6182296;23;20590;-72
2021/07/06 06:38:32;;;;;;;4.65;1.98;;;21.60;99.90;;;;;;6174565;23;20160;-72
2021/07/06 06:40:59;;;;;;;2.05;1.60;;;21.80;99.90;;;;;;6176764;23;20179;-72
2021/07/06 06:43:28;;;;;;;1.52;1.35;;;21.80;99.90;;;;;;6178807;23;20448;-73
2021/07/06 06:45:54;;;;;;;2.70;1.48;;;21.70;99.90;;;;;;6179091;23;20369;-73
2021/07/06 06:48:21;;;;;;;2.85;1.95;;;21.60;99.90;;;;;;6179625;23;20186;-73
2021/07/06 06:50:48;;;;;;;3.55;1.50;;;22.00;99.90;;;;;;6181344;23;20190;-73
2021/07/06 06:53:15;;;;;;;1.70;1.60;;;22.00;99.90;;;;;;6180061;23;20206;-73
2021/07/06 06:55:42;;;;;;;1.90;1.58;;;22.00;99.90;;;;;;6180899;23;20220;-73
2021/07/06 06:58:09;;;;;;;1.55;1.45;;;22.00;99.90;;;;;;6181295;23;20192;-72
2021/07/06 07:00:37;;;;;;;1.25;1.20;;;22.20;99.90;;;;;;6180297;23;20507;-72
2021/07/06 07:03:04;;;;;;;4.72;1.73;;;22.20;99.90;;;;;;6180503;23;20187;-72
2021/07/06 07:05:30;;;;;;;3.13;1.60;;;22.40;99.90;;;;;;6180625;23;20194;-72
2021/07/06 07:07:58;;;;;;;3.08;1.55;;;22.50;99.90;;;;;;6180065;23;20180;-72
2021/07/06 07:10:25;;;;;;;5.88;1.92;;;22.50;99.90;;;;;;6180306;23;20195;-72
2021/07/06 07:12:53;;;;;;;2.30;1.48;;;22.50;99.90;;;;;;6180331;23;20204;-73
2021/07/06 07:15:21;;;;;;;1.95;1.67;;;22.60;99.90;;;;;;6180523;23;20187;-73
2021/07/06 07:17:49;;;;;;;1.92;1.70;;;22.90;99.90;;;;;;6180512;23;20187;-72
2021/07/06 07:20:16;;;;;;;2.25;1.55;;;23.00;99.90;;;;;;6181100;23;20283;-72
2021/07/06 07:22:44;;;;;;;2.03;1.90;;;23.00;99.90;;;;;;6180303;23;20634;-73
2021/07/06 07:25:12;;;;;;;4.80;2.20;;;23.10;99.90;;;;;;6181082;23;20180;-72
2021/07/06 07:27:39;;;;;;;1.98;1.88;;;23.00;99.90;;;;;;6181519;23;20271;-73
2021/07/06 07:30:07;;;;;;;4.22;2.15;;;23.00;99.90;;;;;;6180112;23;20664;-73
2021/07/06 07:32:34;;;;;;;4.38;1.50;;;23.10;99.90;;;;;;6180418;23;20196;-72
2021/07/06 07:35:02;;;;;;;1.77;1.67;;;23.00;99.90;;;;;;6181313;23;20179;-71
2021/07/06 07:37:29;;;;;;;2.85;1.80;;;23.00;99.90;;;;;;6180527;23;20228;-72
2021/07/06 07:39:55;;;;;;;4.22;1.85;;;23.10;99.90;;;;;;6180411;23;20630;-72
2021/07/06 07:42:22;;;;;;;2.10;1.60;;;23.20;99.90;;;;;;6181740;23;20266;-72
2021/07/06 07:44:49;;;;;;;4.63;2.10;;;23.20;99.90;;;;;;6180276;23;20188;-72
2021/07/06 07:47:16;;;;;;;2.47;1.70;;;23.50;99.90;;;;;;6180635;23;20194;-72
2021/07/06 07:49:43;;;;;;;2.15;1.85;;;23.70;99.90;;;;;;6180112;23;20576;-72
2021/07/06 07:52:11;;;;;;;2.70;1.90;;;24.00;99.90;;;;;;6180174;23;20190;-72
2021/07/06 07:54:38;;;;;;;3.33;1.88;;;24.20;99.90;;;;;;6180401;23;20188;-72
2021/07/06 07:57:09;;;;;;;2.70;1.60;;;24.20;99.90;;;;;;6181117;23;20946;-72
2021/07/06 07:59:36;;;;;;;2.38;1.40;;;24.30;99.90;;;;;;6179257;23;20184;-73
2021/07/06 08:02:03;;;;;;;2.03;1.40;;;24.30;99.90;;;;;;6179863;23;20262;-72
2021/07/06 08:04:30;;;;;;;1.60;1.50;;;24.40;99.90;;;;;;6181476;23;20175;-72
2021/07/06 08:06:57;;;;;;;2.63;1.40;;;24.40;99.90;;;;;;6180080;23;20180;-72
2021/07/06 08:09:25;;;;;;;2.83;1.55;;;24.20;99.90;;;;;;6179950;23;20523;-71
2021/07/06 08:11:52;;;;;;;2.00;1.65;;;24.00;99.90;;;;;;6180081;23;20184;-72
2021/07/06 08:14:19;;;;;;;3.25;1.70;;;24.10;99.90;;;;;;6180249;23;20282;-72
2021/07/06 08:16:46;;;;;;;4.68;1.77;;;24.30;99.90;;;;;;6180196;23;20179;-72
2021/07/06 08:19:12;;;;;;;1.63;1.52;;;24.20;99.90;;;;;;6180913;23;20183;-72
2021/07/06 08:21:39;;;;;;;3.15;1.50;;;24.30;99.90;;;;;;6179821;23;20205;-72
2021/07/06 08:24:06;;;;;;;2.08;1.52;;;24.20;99.90;;;;;;6180453;23;20182;-72
2021/07/06 08:26:36;;;;;;;2.55;1.48;;;24.00;99.90;;;;;;6180384;23;20189;-72
2021/07/06 08:29:03;;;;;;;3.10;1.75;;;24.10;99.90;;;;;;6180085;23;20180;-72
2021/07/06 08:31:29;;;;;;;8.00;2.33;;;24.40;99.90;;;;;;6179936;23;20183;-73
2021/07/06 08:33:56;;;;;;;7.43;1.80;;;24.50;99.90;;;;;;6180522;23;20206;-72
2021/07/06 08:36:24;;;;;;;4.82;2.15;;;24.30;99.90;;;;;;6179910;23;20190;-72
2021/07/06 08:38:51;;;;;;;2.47;1.60;;;24.30;99.90;;;;;;6179963;23;20207;-72
2021/07/06 08:41:18;;;;;;;3.05;1.90;;;24.20;99.90;;;;;;6180089;23;20184;-72
2021/07/06 08:43:46;;;;;;;2.78;2.00;;;24.10;99.90;;;;;;6179431;23;20258;-73
2021/07/06 08:46:17;;;;;;;3.15;1.63;;;24.30;99.90;;;;;;6180002;23;20180;-72
2021/07/06 08:48:47;;;;;;;5.57;2.22;;;24.20;99.90;;;;;;6180682;23;20710;-72
2021/07/06 08:51:18;;;;;;;4.10;2.05;;;24.10;99.90;;;;;;6177970;23;20194;-72
2021/07/06 08:53:45;;;;;;;1.55;1.45;;;24.10;99.90;;;;;;6172047;23;20666;-73
2021/07/06 08:56:12;;;;;;;2.55;1.60;;;24.30;99.90;;;;;;6171890;23;20185;-72
2021/07/06 08:58:39;;;;;;;4.05;1.90;;;24.30;99.90;;;;;;6175822;23;20183;-73
2021/07/06 09:01:07;;;;;;;1.60;1.50;;;24.40;99.90;;;;;;6175045;23;20201;-72
2021/07/06 09:03:54;;;;;;;1.75;1.65;;;24.40;99.90;;;;;;6176273;23;20649;-73
2021/07/06 09:06:21;;;;;;;1.92;1.50;;;24.40;99.90;;;;;;6174652;23;20183;-72
2021/07/06 09:08:52;;;;;;;3.58;1.80;;;24.50;99.90;;;;;;6173277;23;20188;-72
2021/07/06 09:11:19;;;;;;;2.00;1.33;;;24.50;99.90;;;;;;6176017;23;20544;-72
2021/07/06 09:13:45;;;;;;;1.83;1.50;;;24.30;99.90;;;;;;6174844;23;20199;-72
2021/07/06 09:16:22;;;;;;;2.40;1.90;;;24.40;99.90;;;;;;6176074;23;20698;-72
2021/07/06 09:18:50;;;;;;;2.28;1.80;;;24.30;99.90;;;;;;6175838;23;20254;-72
2021/07/06 09:21:17;;;;;;;1.73;1.60;;;24.40;99.90;;;;;;6174783;23;20195;-72
2021/07/06 09:23:46;;;;;;;2.85;2.03;;;24.40;99.90;;;;;;6174242;23;20190;-73
2021/07/06 09:26:16;;;;;;;3.03;1.70;;;24.60;99.90;;;;;;6174793;23;20630;-72
2021/07/06 09:28:44;;;;;;;3.33;1.60;;;24.70;99.90;;;;;;6174972;23;20230;-72
2021/07/06 09:31:26;;;;;;;1.67;1.58;;;24.70;99.90;;;;;;6173637;23;20179;-72
2021/07/06 09:34:00;;;;;;;2.28;1.88;;;24.90;99.90;;;;;;6174619;23;20839;-72
2021/07/06 09:36:30;;;;;;;3.70;2.22;;;24.90;99.90;;;;;;6174063;23;20271;-72
2021/07/06 09:39:02;;;;;;;1.92;1.70;;;24.50;99.90;;;;;;6174713;23;20180;-72
2021/07/06 09:41:29;;;;;;;2.08;1.90;;;24.50;99.90;;;;;;6174289;23;20729;-72
2021/07/06 09:43:55;;;;;;;3.83;1.80;;;24.40;99.90;;;;;;6175300;23;20202;-73
2021/07/06 09:46:25;;;;;;;1.70;1.60;;;24.50;99.90;;;;;;6174295;23;20578;-74
2021/07/06 09:49:00;;;;;;;3.47;1.67;;;24.40;99.90;;;;;;6174278;23;20191;-74
2021/07/06 09:51:27;;;;;;;1.58;1.48;;;24.40;99.90;;;;;;6174735;23;20186;-74
2021/07/06 09:53:55;;;;;;;1.50;1.40;;;24.50;99.90;;;;;;6175355;23;20200;-74
2021/07/06 09:56:24;;;;;;;3.10;1.83;;;24.40;99.90;;;;;;6175154;23;20183;-73
2021/07/06 09:58:55;;;;;;;1.70;1.60;;;24.30;99.90;;;;;;6174189;23;20188;-73
2021/07/06 10:01:26;;;;;;;2.47;1.90;;;24.10;99.90;;;;;;6175028;23;20215;-73
2021/07/06 10:03:54;;;;;;;1.70;1.60;;;23.90;99.90;;;;;;6175424;23;20184;-73
2021/07/06 10:06:23;;;;;;;2.60;1.70;;;23.70;99.90;;;;;;6175171;23;20270;-73
2021/07/06 10:08:50;;;;;;;3.28;1.42;;;23.60;99.90;;;;;;6178213;22;20195;-73
2021/07/06 10:11:18;;;;;;;3.50;1.90;;;23.50;99.90;;;;;;6207173;23;20386;-73
2021/07/06 10:13:44;;;;;;;1.55;1.45;;;23.40;99.90;;;;;;6208459;23;20199;-73
2021/07/06 10:16:14;;;;;;;2.35;1.85;;;23.30;99.90;;;;;;6209080;23;20179;-73
2021/07/06 10:18:42;;;;;;;2.45;1.40;;;23.20;99.90;;;;;;6209319;23;20179;-72
2021/07/06 10:21:10;;;;;;;2.10;1.60;;;23.00;99.90;;;;;;6207463;23;20182;-72
2021/07/06 10:23:39;;;;;;;2.22;1.45;;;22.90;99.90;;;;;;6208069;23;20179;-72
2021/07/06 10:26:08;;;;;;;3.00;1.80;;;22.60;99.90;;;;;;6209380;23;20183;-72
2021/07/06 10:28:36;;;;;;;4.50;1.50;;;22.50;99.90;;;;;;6208418;23;20183;-73
2021/07/06 10:31:16;;;;;;;2.17;1.55;;;22.30;99.90;;;;;;6207266;23;20213;-73
2021/07/06 10:33:46;;;;;;;1.95;1.85;;;22.20;99.90;;;;;;6208412;23;20198;-73
2021/07/06 10:36:13;;;;;;;3.88;2.10;;;21.90;99.90;;;;;;6208546;23;20187;-72
2021/07/06 10:38:45;;;;;;;2.20;2.00;;;21.80;99.90;;;;;;6207770;23;20189;-73
2021/07/06 10:41:22;;;;;;;8.07;2.40;;;21.70;99.90;;;;;;6207821;23;20183;-72
2021/07/06 10:43:56;;;;;;;3.15;2.28;;;21.60;99.90;;;;;;6208181;23;20234;-73
2021/07/06 10:46:32;;;;;;;2.80;2.45;;;21.40;99.90;;;;;;6208454;23;20185;-73
2021/07/06 10:49:03;;;;;;;4.00;2.47;;;21.20;99.90;;;;;;6207727;23;20183;-72
2021/07/06 10:51:53;;;;;;;3.97;2.38;;;21.00;99.90;;;;;;6207338;23;20234;-72
2021/07/06 10:54:41;;;;;;;4.43;2.60;;;20.90;99.90;;;;;;6208179;23;20229;-72
2021/07/06 10:57:29;;;;;;;4.43;3.15;;;20.70;99.90;;;;;;6201873;23;20258;-72
2021/07/06 10:59:59;;;;;;;3.13;2.67;;;20.80;99.90;;;;;;6199932;23;20183;-72
2021/07/06 11:02:28;;;;;;;4.00;2.38;;;20.70;99.90;;;;;;6209408;23;20508;-75
2021/07/06 11:05:09;;;;;;;9.15;2.90;;;20.60;99.90;;;;;;6208525;23;20266;-74
2021/07/06 11:08:00;;;;;;;9.80;2.97;;;20.50;99.90;;;;;;6209098;23;20185;-74
2021/07/06 11:10:44;;;;;;;6.95;2.80;;;20.30;99.90;;;;;;6207152;23;20527;-74
2021/07/06 11:13:18;;;;;;;10.52;3.42;;;19.90;99.90;;;;;;6208112;23;20247;-75
2021/07/06 11:15:45;;;;;;;4.95;2.92;;;19.90;99.90;;;;;;6207880;23;20504;-75
2021/07/06 11:18:13;;;;;;;5.22;2.75;;;20.10;99.90;;;;;;6208448;23;20183;-75
2021/07/06 11:20:43;;;;;;;3.97;3.08;;;19.80;99.90;;;;;;6208052;23;20733;-74
2021/07/06 11:23:16;;;;;;;3.30;2.45;;;19.70;99.90;;;;;;6207812;23;20700;-74
2021/07/06 11:25:45;;;;;;;4.70;2.78;;;19.80;99.90;;;;;;6208121;23;20179;-74
2021/07/06 11:28:14;;;;;;;8.70;4.05;;;19.90;99.90;;;;;;6208285;23;20214;-74
2021/07/06 11:30:46;;;;;;;4.28;2.67;;;20.00;99.90;;;;;;6207718;23;20259;-74
2021/07/06 11:33:15;;;;;;;4.90;2.83;;;20.00;99.90;;;;;;6207987;23;20189;-74
2021/07/06 11:35:45;;;;;;;3.67;2.78;;;19.90;99.90;;;;;;6210075;23;20199;-74
2021/07/06 11:38:14;;;;;;;5.18;3.08;;;20.00;99.90;;;;;;6210572;23;20179;-74
2021/07/06 11:40:43;;;;;;;5.53;2.97;;;20.10;99.90;;;;;;6208619;23;20179;-74
2021/07/06 11:43:13;;;;;;;8.55;3.38;;;20.20;99.90;;;;;;6209413;23;20183;-74
2021/07/06 11:45:40;;;;;;;3.42;2.83;;;20.40;99.90;;;;;;6210147;23;20179;-74
2021/07/06 11:48:10;;;;;;;2.78;2.58;;;20.30;99.90;;;;;;6190424;22;20203;-81
2021/07/06 11:50:38;;;;;;;6.18;2.83;;;20.30;99.90;;;;;;6147573;23;20208;-81
2021/07/06 11:53:07;;;;;;;3.63;2.92;;;20.30;99.90;;;;;;6148909;23;20582;-81
2021/07/06 11:55:36;;;;;;;4.78;2.70;;;20.40;99.90;;;;;;6149677;23;20725;-82
2021/07/06 11:58:04;;;;;;;7.05;3.10;;;20.50;99.90;;;;;;6148677;23;20804;-81
2021/07/06 12:00:33;;;;;;;5.32;3.10;;;20.50;99.90;;;;;;6146884;23;20524;-81
2021/07/06 12:03:17;;;;;;;5.07;2.92;;;20.60;99.90;;;;;;6149794;23;20231;-82
2021/07/06 12:05:45;;;;;;;4.22;3.20;;;20.80;99.90;;;;;;6149005;23;20191;-85
2021/07/06 12:08:16;;;;;;;3.70;2.80;;;21.00;99.90;;;;;;6149151;23;20180;-82
2021/07/06 12:10:57;;;;;;;2.92;2.63;;;21.10;99.90;;;;;;6148540;23;20184;-81
2021/07/06 12:13:25;;;;;;;3.40;3.10;;;21.20;99.90;;;;;;6149407;23;20259;-82
2021/07/06 12:15:54;;;;;;;3.25;2.72;;;21.30;99.90;;;;;;6148122;23;20235;-82
2021/07/06 12:18:21;;;;;;;3.38;2.67;;;21.50;99.90;;;;;;6147611;23;20231;-82
2021/07/06 12:20:57;;;;;;;2.67;2.40;;;21.40;99.90;;;;;;6149030;23;20375;-80
2021/07/06 12:23:26;;;;;;;4.03;2.60;;;21.70;99.90;;;;;;6149594;23;20186;-82
2021/07/06 12:25:55;;;;;;;3.72;2.45;;;21.80;99.90;;;;;;6147753;23;20259;-81
2021/07/06 12:28:22;;;;;;;4.25;2.30;;;21.60;99.90;;;;;;6148983;23;20204;-83
2021/07/06 12:31:15;;;;;;;9.98;3.00;;;21.80;99.90;;;;;;6197494;23;20205;-83
2021/07/06 12:33:42;;;;;;;10.15;3.10;;;22.10;99.90;;;;;;6200121;23;20269;-83
2021/07/06 12:36:08;;;;;;;5.07;2.47;;;22.40;99.90;;;;;;6199237;23;20332;-84
2021/07/06 12:38:37;;;;;;;5.72;2.20;;;22.80;99.90;;;;;;6190467;23;20282;-83
2021/07/06 12:41:19;;;;;;;2.40;1.98;;;23.10;99.90;;;;;;6171055;23;20406;-83
2021/07/06 12:43:57;;;;;;;3.47;1.63;;;23.50;99.90;;;;;;6172145;23;20694;-89
2021/07/06 12:46:28;;;;;;;3.08;1.90;;;23.50;99.90;;;;;;6178031;23;20184;-88
2021/07/06 12:48:55;;;;;;;1.75;1.65;;;23.70;99.90;;;;;;6174727;23;20210;-88
2021/07/06 12:51:23;;;;;;;2.50;1.45;;;23.60;99.90;;;;;;6173719;23;20654;-89
2021/07/06 12:53:59;;;;;;;1.50;1.35;;;23.70;99.90;;;;;;6159074;23;20231;-89
2021/07/06 12:56:28;;;;;;;1.73;1.05;;;23.30;99.90;;;;;;6146431;23;20176;-90